Time;durP1;ratioP1;P1;durP2;ratioP2;P2;SDS_P1;SDS_P2;PMS_P1;PMS_P2;Temp;Humidity;BMP_temperature;BMP_pressure;BME280_temperature;BME280_humidity;BME280_pressure;Samples;Min_cycle;Max_cycle;Signal;HPM_P1;HPM_P2
2023/09/30 00:01:10;;;;;;;2.33;1.30;;;16.30;99.90;;;;;;5052903;28;20208;-81
2023/09/30 00:03:36;;;;;;;3.53;1.50;;;16.30;99.90;;;;;;5053098;28;20243;-81
2023/09/30 00:06:01;;;;;;;2.87;1.63;;;16.20;99.90;;;;;;5052508;28;20166;-81
2023/09/30 00:08:27;;;;;;;2.87;1.37;;;16.10;99.90;;;;;;5052457;28;20173;-81
2023/09/30 00:10:54;;;;;;;4.27;1.70;;;16.00;99.90;;;;;;5052342;28;20177;-81
2023/09/30 00:13:19;;;;;;;3.70;1.63;;;16.00;99.90;;;;;;5053906;28;20173;-82
2023/09/30 00:15:45;;;;;;;2.80;1.70;;;15.90;99.90;;;;;;5054057;28;20165;-81
2023/09/30 00:18:10;;;;;;;2.60;1.40;;;15.90;99.90;;;;;;5052301;28;20184;-81
2023/09/30 00:20:36;;;;;;;3.20;1.50;;;15.80;99.90;;;;;;5053604;28;20201;-80
2023/09/30 00:23:02;;;;;;;2.17;1.40;;;15.70;99.90;;;;;;5053787;28;20166;-81
2023/09/30 00:25:27;;;;;;;4.73;1.80;;;15.70;99.90;;;;;;5053707;28;20791;-82
2023/09/30 00:27:53;;;;;;;3.47;1.80;;;15.70;99.90;;;;;;5054483;28;20173;-81
2023/09/30 00:30:18;;;;;;;3.90;1.70;;;15.60;99.90;;;;;;5052761;28;20228;-81
2023/09/30 00:32:44;;;;;;;2.83;1.27;;;15.60;99.90;;;;;;5052329;28;20178;-80
2023/09/30 00:35:11;;;;;;;3.60;1.57;;;15.50;99.90;;;;;;5053692;28;20205;-82
2023/09/30 00:37:41;;;;;;;4.20;1.50;;;15.40;99.90;;;;;;5052396;28;20177;-81
2023/09/30 00:40:11;;;;;;;4.17;1.67;;;15.30;99.90;;;;;;5052116;28;20292;-81
2023/09/30 00:42:37;;;;;;;3.17;1.37;;;15.20;99.90;;;;;;5052177;28;20191;-81
2023/09/30 00:45:04;;;;;;;3.43;1.60;;;15.10;99.90;;;;;;5052713;28;20711;-81
2023/09/30 00:47:30;;;;;;;4.27;1.83;;;15.00;99.90;;;;;;5052172;28;20205;-83
2023/09/30 00:49:56;;;;;;;2.07;1.40;;;15.00;99.90;;;;;;5052379;28;20188;-82
2023/09/30 00:52:22;;;;;;;4.83;1.67;;;15.00;99.90;;;;;;5051414;28;20185;-81
2023/09/30 00:54:49;;;;;;;4.63;2.00;;;15.00;99.90;;;;;;5053753;28;20198;-81
2023/09/30 00:57:16;;;;;;;2.63;1.67;;;15.00;99.90;;;;;;5052105;28;20181;-81
2023/09/30 00:59:42;;;;;;;2.97;1.50;;;15.00;99.90;;;;;;5053599;28;20202;-81
2023/09/30 01:02:08;;;;;;;3.13;1.53;;;15.00;99.90;;;;;;5051272;28;20603;-81
2023/09/30 01:04:33;;;;;;;3.87;2.10;;;15.00;99.90;;;;;;5051832;28;20193;-81
2023/09/30 01:06:59;;;;;;;2.63;1.73;;;14.90;99.90;;;;;;5051945;28;20176;-81
2023/09/30 01:09:25;;;;;;;3.67;1.70;;;14.80;99.90;;;;;;5053255;28;20528;-84
2023/09/30 01:11:51;;;;;;;3.27;1.80;;;14.90;99.90;;;;;;5052010;28;20178;-81
2023/09/30 01:14:30;;;;;;;5.43;1.90;;;14.90;99.90;;;;;;5054814;28;20193;-81
2023/09/30 01:16:56;;;;;;;2.57;1.40;;;15.00;99.90;;;;;;5056941;28;20184;-81
2023/09/30 01:19:24;;;;;;;6.43;1.67;;;14.90;99.90;;;;;;5055589;28;20178;-81
2023/09/30 01:21:56;;;;;;;2.90;1.60;;;14.90;99.90;;;;;;5055291;28;20216;-82
2023/09/30 01:24:22;;;;;;;3.53;1.50;;;14.70;99.90;;;;;;5055511;28;20197;-81
2023/09/30 01:26:48;;;;;;;3.63;1.60;;;14.60;99.90;;;;;;5055814;28;20177;-81
2023/09/30 01:29:14;;;;;;;3.53;1.50;;;14.60;99.90;;;;;;5055632;28;20178;-81
2023/09/30 01:31:39;;;;;;;3.97;1.73;;;14.60;99.90;;;;;;5056545;28;20180;-83
2023/09/30 01:34:05;;;;;;;1.63;1.37;;;14.50;99.90;;;;;;5055132;28;20231;-81
2023/09/30 01:36:31;;;;;;;4.63;1.80;;;14.50;99.90;;;;;;5055310;28;20170;-81
2023/09/30 01:38:57;;;;;;;3.13;1.70;;;14.50;99.90;;;;;;5056693;28;20174;-81
2023/09/30 01:41:23;;;;;;;3.20;1.77;;;14.30;99.90;;;;;;5055069;28;20338;-81
2023/09/30 01:43:49;;;;;;;3.57;1.50;;;14.20;99.90;;;;;;5056408;28;20256;-81
2023/09/30 01:46:14;;;;;;;3.73;1.60;;;14.10;99.90;;;;;;5055120;28;20216;-81
2023/09/30 01:48:40;;;;;;;3.47;1.37;;;14.00;99.90;;;;;;5056536;28;20193;-81
2023/09/30 01:51:06;;;;;;;3.30;1.77;;;14.00;99.90;;;;;;5056223;28;20180;-84
2023/09/30 01:53:32;;;;;;;4.20;1.80;;;14.00;99.90;;;;;;5054742;28;20189;-81
2023/09/30 01:55:58;;;;;;;4.37;1.43;;;14.00;99.90;;;;;;5055120;28;20178;-81
2023/09/30 01:58:24;;;;;;;2.33;1.30;;;13.90;99.90;;;;;;5054766;28;20196;-81
2023/09/30 02:00:50;;;;;;;5.03;2.53;;;13.80;99.90;;;;;;5055258;28;20197;-84
2023/09/30 02:03:17;;;;;;;1.93;1.27;;;13.50;99.90;;;;;;5056139;28;20162;-81
2023/09/30 02:05:42;;;;;;;2.00;1.30;;;13.40;99.90;;;;;;5056569;28;20174;-82
2023/09/30 02:08:08;;;;;;;2.90;1.50;;;13.50;99.90;;;;;;5055249;28;20178;-84
2023/09/30 02:10:34;;;;;;;4.53;1.60;;;13.40;99.90;;;;;;5054799;28;20177;-81
2023/09/30 02:13:00;;;;;;;2.70;1.50;;;13.40;99.90;;;;;;5054930;28;20264;-81
2023/09/30 02:15:25;;;;;;;3.30;1.50;;;13.40;99.90;;;;;;5056329;28;20218;-81
2023/09/30 02:17:51;;;;;;;3.07;1.43;;;13.30;99.90;;;;;;5054709;28;20193;-82
2023/09/30 02:20:21;;;;;;;3.00;1.57;;;13.20;99.90;;;;;;5054606;28;20704;-81
2023/09/30 02:22:48;;;;;;;2.60;1.70;;;13.20;99.90;;;;;;5054949;28;20173;-81
2023/09/30 02:25:14;;;;;;;4.13;1.80;;;13.20;99.90;;;;;;5053521;28;20194;-81
2023/09/30 02:27:41;;;;;;;3.77;1.60;;;13.20;99.90;;;;;;5054146;28;20181;-81
2023/09/30 02:30:10;;;;;;;2.23;1.60;;;13.20;99.90;;;;;;5054853;28;20208;-84
2023/09/30 02:32:36;;;;;;;3.33;1.70;;;13.30;99.90;;;;;;5055863;28;20593;-83
2023/09/30 02:35:02;;;;;;;3.77;1.77;;;13.30;99.90;;;;;;5054649;28;20748;-81
2023/09/30 02:37:28;;;;;;;3.33;1.80;;;13.40;99.90;;;;;;5054579;28;20212;-81
2023/09/30 02:39:53;;;;;;;2.90;1.80;;;13.50;99.90;;;;;;5055708;28;20202;-81
2023/09/30 02:42:19;;;;;;;2.37;1.73;;;13.50;99.90;;;;;;5054098;28;20176;-81
2023/09/30 02:44:45;;;;;;;6.43;2.20;;;13.50;99.90;;;;;;5055505;28;20283;-82
2023/09/30 02:47:11;;;;;;;4.70;2.00;;;13.30;99.90;;;;;;5054316;28;20174;-81
2023/09/30 02:49:37;;;;;;;4.00;1.80;;;13.20;99.90;;;;;;5055708;28;20174;-81
2023/09/30 02:52:02;;;;;;;3.90;2.17;;;13.30;99.90;;;;;;5055335;28;20676;-81
2023/09/30 02:54:30;;;;;;;3.13;1.90;;;13.30;99.90;;;;;;5055119;28;20571;-81
2023/09/30 02:56:56;;;;;;;3.63;1.80;;;13.20;99.90;;;;;;5055301;28;20173;-81
2023/09/30 02:59:22;;;;;;;2.70;1.97;;;13.20;99.90;;;;;;5054089;28;20222;-83
2023/09/30 03:01:48;;;;;;;3.50;2.10;;;13.30;99.90;;;;;;5053757;28;20255;-81
2023/09/30 03:04:13;;;;;;;4.47;1.77;;;13.30;99.90;;;;;;5053819;28;20275;-81
2023/09/30 03:06:39;;;;;;;4.30;1.77;;;13.30;99.90;;;;;;5054133;28;20174;-81
2023/09/30 03:09:05;;;;;;;3.77;1.70;;;13.40;99.90;;;;;;5053659;28;20178;-81
2023/09/30 03:11:31;;;;;;;4.33;1.80;;;13.40;99.90;;;;;;5053639;28;20177;-81
2023/09/30 03:13:57;;;;;;;5.10;2.20;;;13.50;99.90;;;;;;5055184;28;20268;-81
2023/09/30 03:16:24;;;;;;;3.43;1.77;;;13.40;99.90;;;;;;5053902;28;20204;-81
2023/09/30 03:18:50;;;;;;;5.50;2.20;;;13.50;99.90;;;;;;5055248;28;20177;-81
2023/09/30 03:21:16;;;;;;;3.97;2.00;;;13.40;99.90;;;;;;5054663;28;20690;-81
2023/09/30 03:23:43;;;;;;;3.03;1.83;;;13.40;99.90;;;;;;5054613;28;20189;-81
2023/09/30 03:26:09;;;;;;;3.00;1.63;;;13.50;99.90;;;;;;5053334;28;20180;-81
2023/09/30 03:28:38;;;;;;;4.20;1.80;;;13.50;99.90;;;;;;5054428;28;20199;-80
2023/09/30 03:31:04;;;;;;;3.17;1.97;;;13.50;99.90;;;;;;5054687;28;20178;-81
2023/09/30 03:33:33;;;;;;;3.37;2.00;;;13.30;99.90;;;;;;5054942;28;20299;-81
2023/09/30 03:35:59;;;;;;;5.47;2.30;;;13.10;99.90;;;;;;5053744;28;20201;-80
2023/09/30 03:38:26;;;;;;;5.77;2.10;;;13.10;99.90;;;;;;5052962;28;20174;-83
2023/09/30 03:40:54;;;;;;;3.90;2.00;;;13.30;99.90;;;;;;5054347;28;20201;-81
2023/09/30 03:43:21;;;;;;;3.67;1.80;;;13.40;99.90;;;;;;5054122;28;20299;-81
2023/09/30 03:45:46;;;;;;;5.10;2.10;;;13.50;99.90;;;;;;5053249;28;20176;-81
2023/09/30 03:48:12;;;;;;;3.50;2.33;;;13.50;99.90;;;;;;5052975;28;20169;-81
2023/09/30 03:50:38;;;;;;;3.77;2.10;;;13.60;99.90;;;;;;5053224;28;20260;-81
2023/09/30 03:53:04;;;;;;;3.43;2.03;;;13.50;99.90;;;;;;5052750;28;20174;-83
2023/09/30 03:55:31;;;;;;;5.57;1.87;;;13.40;99.90;;;;;;5054113;28;20189;-81
2023/09/30 03:57:57;;;;;;;6.00;2.23;;;13.30;99.90;;;;;;5054470;28;20177;-84
2023/09/30 04:00:24;;;;;;;5.40;1.93;;;13.20;99.90;;;;;;5053994;28;20201;-81
2023/09/30 04:02:53;;;;;;;3.93;2.00;;;13.30;99.90;;;;;;5053134;28;20181;-81
2023/09/30 04:05:24;;;;;;;3.20;1.83;;;13.30;99.90;;;;;;5053431;28;20251;-80
2023/09/30 04:07:49;;;;;;;3.63;1.93;;;13.40;99.90;;;;;;5053139;28;20181;-84
2023/09/30 04:10:15;;;;;;;4.00;2.03;;;13.40;99.90;;;;;;5052557;28;20185;-81
2023/09/30 04:12:41;;;;;;;7.23;2.10;;;13.40;99.90;;;;;;5052432;28;20178;-81
2023/09/30 04:15:07;;;;;;;3.93;1.90;;;13.40;99.90;;;;;;5054098;28;20185;-81
2023/09/30 04:17:32;;;;;;;3.53;2.00;;;13.40;99.90;;;;;;5052712;28;20174;-82
2023/09/30 04:19:58;;;;;;;4.90;1.80;;;13.50;99.90;;;;;;5052294;28;20200;-81
2023/09/30 04:22:25;;;;;;;3.17;1.83;;;13.40;99.90;;;;;;5052759;28;20169;-84
2023/09/30 04:24:51;;;;;;;4.63;2.10;;;13.40;99.90;;;;;;5054137;28;20193;-81
2023/09/30 04:27:17;;;;;;;6.50;2.50;;;13.50;99.90;;;;;;5054510;28;20173;-81
2023/09/30 04:29:43;;;;;;;4.07;2.00;;;13.50;99.90;;;;;;5054453;28;20170;-81
2023/09/30 04:32:09;;;;;;;4.17;2.20;;;13.40;99.90;;;;;;5054086;28;20193;-81
2023/09/30 04:34:35;;;;;;;5.63;1.90;;;13.30;99.90;;;;;;5054070;28;20195;-81
2023/09/30 04:37:01;;;;;;;3.53;2.00;;;13.40;99.90;;;;;;5053910;28;20180;-82
2023/09/30 04:39:27;;;;;;;4.10;1.80;;;13.40;99.90;;;;;;5054002;28;20158;-81
2023/09/30 04:41:53;;;;;;;3.67;1.80;;;13.40;99.90;;;;;;5052507;28;20205;-81
2023/09/30 04:44:19;;;;;;;5.57;2.00;;;13.40;99.90;;;;;;5054524;28;20214;-82
2023/09/30 04:46:47;;;;;;;5.10;2.00;;;13.30;99.90;;;;;;5052873;28;20177;-82
2023/09/30 04:49:14;;;;;;;5.03;2.10;;;13.30;99.90;;;;;;5054959;28;20169;-83
2023/09/30 04:51:40;;;;;;;4.57;2.37;;;13.20;99.90;;;;;;5057861;28;20174;-81
2023/09/30 04:54:10;;;;;;;5.40;2.30;;;13.20;99.90;;;;;;5057576;28;20215;-81
2023/09/30 04:56:36;;;;;;;5.77;2.10;;;13.20;99.90;;;;;;5056553;28;20178;-81
2023/09/30 04:59:02;;;;;;;5.57;2.13;;;13.10;99.90;;;;;;5057864;28;20181;-81
2023/09/30 05:01:28;;;;;;;2.80;2.00;;;13.10;99.90;;;;;;5057645;28;20215;-81
2023/09/30 05:03:54;;;;;;;2.73;2.00;;;13.20;99.90;;;;;;5057540;28;20185;-81
2023/09/30 05:06:19;;;;;;;6.27;2.23;;;13.10;99.90;;;;;;5057799;28;20251;-81
2023/09/30 05:08:45;;;;;;;6.03;2.23;;;13.10;99.90;;;;;;5055713;28;20669;-81
2023/09/30 05:11:10;;;;;;;3.03;1.60;;;13.10;99.90;;;;;;5057241;28;20178;-83
2023/09/30 05:13:36;;;;;;;3.23;2.07;;;13.00;99.90;;;;;;5055200;28;20304;-82
2023/09/30 05:16:03;;;;;;;4.53;1.97;;;12.80;99.90;;;;;;5055441;28;20184;-83
2023/09/30 05:18:29;;;;;;;5.93;1.93;;;12.70;99.90;;;;;;5055276;28;20209;-82
2023/09/30 05:20:55;;;;;;;4.00;2.07;;;12.50;99.90;;;;;;5054976;28;20549;-83
2023/09/30 05:23:20;;;;;;;2.83;1.53;;;12.40;99.90;;;;;;5056575;28;20166;-83
2023/09/30 05:25:46;;;;;;;2.73;1.67;;;12.30;99.90;;;;;;5055270;28;20174;-82
2023/09/30 05:28:13;;;;;;;3.07;1.90;;;12.30;99.90;;;;;;5056957;28;20177;-83
2023/09/30 05:30:40;;;;;;;2.90;1.70;;;12.40;99.90;;;;;;5055083;28;20173;-82
2023/09/30 05:33:06;;;;;;;4.53;2.00;;;12.40;99.90;;;;;;5056683;28;20181;-83
2023/09/30 05:35:32;;;;;;;3.70;2.00;;;12.50;99.90;;;;;;5056407;28;20689;-84
2023/09/30 05:37:58;;;;;;;3.37;1.73;;;12.50;99.90;;;;;;5056655;28;20176;-82
2023/09/30 05:40:25;;;;;;;4.03;1.90;;;12.60;99.90;;;;;;5055125;28;20296;-82
2023/09/30 05:42:59;;;;;;;2.33;1.60;;;12.60;99.90;;;;;;5056249;28;20551;-83
2023/09/30 05:45:30;;;;;;;4.63;2.20;;;12.60;99.90;;;;;;5056297;28;20200;-83
2023/09/30 05:47:57;;;;;;;5.17;2.27;;;12.40;99.90;;;;;;5054690;28;20176;-83
2023/09/30 05:50:24;;;;;;;5.03;2.03;;;12.40;99.90;;;;;;5056190;28;20201;-82
2023/09/30 05:52:51;;;;;;;3.87;2.17;;;12.50;99.90;;;;;;5056004;28;20692;-82
2023/09/30 05:55:20;;;;;;;4.30;2.00;;;12.50;99.90;;;;;;5056295;28;20200;-83
2023/09/30 05:57:50;;;;;;;4.77;2.13;;;12.60;99.90;;;;;;5054037;28;20657;-82
2023/09/30 06:00:50;;;;;;;4.13;1.90;;;12.50;99.90;;;;;;5054528;28;20201;-82
2023/09/30 06:03:08;;;;;;;3.83;1.80;;;12.50;99.90;;;;;;5054247;28;20177;-82
2023/09/30 06:05:34;;;;;;;4.23;2.30;;;12.50;99.90;;;;;;5054811;28;20186;-83
2023/09/30 06:08:04;;;;;;;5.53;2.23;;;12.60;99.90;;;;;;5054433;28;20223;-83
2023/09/30 06:10:30;;;;;;;5.83;2.50;;;12.50;99.90;;;;;;5055420;28;20658;-83
2023/09/30 06:12:57;;;;;;;5.07;2.40;;;12.50;99.90;;;;;;5055525;28;20177;-82
2023/09/30 06:15:25;;;;;;;5.43;2.20;;;12.50;99.90;;;;;;5055390;28;20271;-83
2023/09/30 06:17:52;;;;;;;5.17;2.17;;;12.60;99.90;;;;;;5055709;28;20174;-82
2023/09/30 06:20:19;;;;;;;4.43;2.00;;;12.70;99.90;;;;;;5055355;28;20213;-83
2023/09/30 06:22:45;;;;;;;5.00;2.37;;;12.70;99.90;;;;;;5054084;28;20180;-83
2023/09/30 06:25:16;;;;;;;4.87;2.30;;;12.80;99.90;;;;;;5053945;28;20737;-82
2023/09/30 06:27:48;;;;;;;4.87;2.37;;;12.80;99.90;;;;;;5053909;28;20707;-83
2023/09/30 06:30:15;;;;;;;3.47;2.00;;;12.70;99.90;;;;;;5055185;28;20176;-82
2023/09/30 06:32:41;;;;;;;4.30;2.60;;;12.70;99.90;;;;;;5055339;28;20178;-83
2023/09/30 06:35:10;;;;;;;5.80;2.40;;;12.60;99.90;;;;;;5054103;28;20255;-83
2023/09/30 06:37:36;;;;;;;5.33;2.50;;;12.60;99.90;;;;;;5054272;28;20545;-84
2023/09/30 06:40:04;;;;;;;3.60;2.30;;;12.60;99.90;;;;;;5055075;28;20235;-83
2023/09/30 06:42:31;;;;;;;8.77;2.40;;;12.60;99.90;;;;;;5055064;28;20165;-83
2023/09/30 06:44:57;;;;;;;4.60;2.50;;;12.70;99.90;;;;;;5055596;28;20750;-83
2023/09/30 06:47:23;;;;;;;5.27;2.50;;;12.70;99.90;;;;;;5055373;28;20177;-82
2023/09/30 06:49:49;;;;;;;5.50;2.40;;;12.80;99.90;;;;;;5053454;28;20569;-83
2023/09/30 06:52:15;;;;;;;3.90;2.40;;;12.70;99.90;;;;;;5054272;28;20162;-79
2023/09/30 06:54:40;;;;;;;4.17;2.30;;;12.70;99.90;;;;;;5054203;28;20605;-81
2023/09/30 06:57:06;;;;;;;3.43;2.20;;;12.80;99.90;;;;;;5053120;28;20170;-83
2023/09/30 06:59:34;;;;;;;4.53;2.13;;;12.80;99.90;;;;;;5054824;28;20196;-83
2023/09/30 07:02:00;;;;;;;4.40;1.93;;;12.70;99.90;;;;;;5054789;28;20273;-84
2023/09/30 07:04:26;;;;;;;4.30;2.43;;;12.70;99.90;;;;;;5053558;28;20560;-83
2023/09/30 07:06:53;;;;;;;5.57;2.30;;;12.70;99.90;;;;;;5053566;28;20196;-82
2023/09/30 07:09:19;;;;;;;4.53;2.30;;;12.80;99.90;;;;;;5054613;28;20173;-83
2023/09/30 07:11:45;;;;;;;5.43;2.30;;;12.80;99.90;;;;;;5053423;28;20219;-83
2023/09/30 07:14:11;;;;;;;5.57;2.63;;;12.90;99.90;;;;;;5054261;28;20197;-83
2023/09/30 07:16:37;;;;;;;5.33;2.63;;;12.90;99.90;;;;;;5053220;28;20177;-82
2023/09/30 07:19:02;;;;;;;3.80;1.87;;;13.00;99.90;;;;;;5052652;28;20674;-83
2023/09/30 07:21:28;;;;;;;7.13;2.80;;;13.00;99.90;;;;;;5052607;28;20296;-82
2023/09/30 07:23:54;;;;;;;7.33;3.03;;;13.10;99.90;;;;;;5054048;28;20239;-83
2023/09/30 07:26:24;;;;;;;6.07;2.63;;;13.20;99.90;;;;;;5052884;28;20169;-82
2023/09/30 07:28:50;;;;;;;6.63;2.80;;;13.20;99.90;;;;;;5052927;28;20166;-83
2023/09/30 07:31:15;;;;;;;6.73;2.70;;;13.30;99.90;;;;;;5052056;28;20220;-82
2023/09/30 07:33:41;;;;;;;6.00;2.70;;;13.30;99.90;;;;;;5052524;28;20197;-83
2023/09/30 07:36:07;;;;;;;5.03;2.90;;;13.40;99.90;;;;;;5054093;28;20242;-83
2023/09/30 07:38:32;;;;;;;7.47;2.73;;;13.50;99.90;;;;;;5053866;28;20174;-83
2023/09/30 07:41:00;;;;;;;6.33;2.90;;;13.60;99.90;;;;;;5052205;28;20631;-83
2023/09/30 07:43:27;;;;;;;7.13;3.10;;;13.60;99.90;;;;;;5052451;28;20201;-82
2023/09/30 07:45:53;;;;;;;6.70;2.90;;;13.60;99.90;;;;;;5054079;28;20181;-84
2023/09/30 07:48:19;;;;;;;6.13;2.80;;;13.70;99.90;;;;;;5053830;28;20177;-84
2023/09/30 07:50:45;;;;;;;5.87;3.10;;;13.90;99.90;;;;;;5053392;28;20178;-83
2023/09/30 07:53:12;;;;;;;7.60;3.00;;;14.00;99.90;;;;;;5052314;28;20197;-83
2023/09/30 07:55:37;;;;;;;8.17;2.60;;;14.00;99.90;;;;;;5052322;28;20268;-83
2023/09/30 07:58:03;;;;;;;7.63;2.57;;;14.20;99.90;;;;;;5052052;28;20275;-83
2023/09/30 08:00:29;;;;;;;6.93;3.00;;;14.20;26.20;;;;;;5052094;28;20205;-83
2023/09/30 08:02:55;;;;;;;5.47;2.40;;;14.30;1.00;;;;;;5052118;28;20173;-83
2023/09/30 08:05:20;;;;;;;5.40;2.50;;;14.50;1.00;;;;;;5053411;28;20193;-83
2023/09/30 08:07:46;;;;;;;6.53;2.70;;;14.60;1.00;;;;;;5053476;28;20173;-84
2023/09/30 08:10:16;;;;;;;6.90;2.83;;;14.70;1.00;;;;;;5053457;28;20553;-83
2023/09/30 08:12:45;;;;;;;5.80;2.60;;;14.80;1.00;;;;;;5053544;28;20173;-84
2023/09/30 08:15:14;;;;;;;5.97;2.80;;;14.90;24.90;;;;;;5053732;28;20201;-83
2023/09/30 08:17:40;;;;;;;5.73;3.03;;;15.10;1.00;;;;;;5053353;28;20185;-83
2023/09/30 08:20:07;;;;;;;5.93;2.67;;;15.30;1.00;;;;;;5053189;28;20197;-83
2023/09/30 08:22:32;;;;;;;7.40;2.43;;;15.50;1.00;;;;;;5051858;28;20182;-83
2023/09/30 08:24:58;;;;;;;6.47;2.40;;;15.50;99.90;;;;;;5057262;28;20189;-83
2023/09/30 08:27:24;;;;;;;5.93;2.30;;;15.50;1.00;;;;;;5057579;28;20177;-83
2023/09/30 08:29:50;;;;;;;5.47;2.63;;;15.50;99.90;;;;;;5055913;28;20170;-83
2023/09/30 08:32:15;;;;;;;5.57;2.30;;;15.70;1.00;;;;;;5056140;28;20175;-82
2023/09/30 08:34:41;;;;;;;6.10;2.30;;;15.90;1.00;;;;;;5055785;28;20213;-83
2023/09/30 08:37:07;;;;;;;6.60;2.53;;;16.20;1.00;;;;;;5057060;28;20252;-83
2023/09/30 08:39:38;;;;;;;6.00;2.10;;;16.30;1.00;;;;;;5057030;28;20204;-83
2023/09/30 08:42:08;;;;;;;3.63;1.93;;;16.30;1.00;;;;;;5056844;28;20206;-83
2023/09/30 08:44:35;;;;;;;7.17;2.50;;;16.30;99.90;;;;;;5055359;28;20368;-83
2023/09/30 08:47:01;;;;;;;6.10;2.10;;;16.40;36.90;;;;;;5055789;28;20169;-83
2023/09/30 08:49:27;;;;;;;6.30;1.90;;;16.30;99.90;;;;;;5055808;28;20165;-82
2023/09/30 08:51:56;;;;;;;6.37;2.20;;;16.10;99.90;;;;;;5056749;28;20188;-83
2023/09/30 08:54:23;;;;;;;6.77;2.10;;;15.90;75.80;;;;;;5055920;28;20197;-83
2023/09/30 08:56:49;;;;;;;5.93;2.50;;;16.00;1.00;;;;;;5056618;28;20560;-83
2023/09/30 08:59:15;;;;;;;4.57;1.93;;;16.30;1.00;;;;;;5055605;28;20170;-83
2023/09/30 09:01:40;;;;;;;7.13;2.30;;;16.60;1.00;;;;;;5056686;28;20208;-83
2023/09/30 09:04:07;;;;;;;8.03;2.20;;;16.60;1.00;;;;;;5055557;28;20541;-83
2023/09/30 09:06:32;;;;;;;6.20;2.50;;;16.30;1.00;;;;;;5056683;28;20200;-83
2023/09/30 09:09:24;;;;;;;4.40;2.40;;;16.30;1.00;;;;;;5056657;28;20251;-83
2023/09/30 09:11:50;;;;;;;6.87;2.30;;;16.60;1.00;;;;;;5052204;28;20185;-82
2023/09/30 09:14:16;;;;;;;4.23;1.90;;;17.00;1.00;;;;;;5054907;28;20236;-83
2023/09/30 09:16:53;;;;;;;5.83;2.13;;;17.30;1.00;;;;;;5055101;28;20178;-83
2023/09/30 09:19:20;;;;;;;6.20;2.40;;;17.30;1.00;;;;;;5056906;28;20173;-82
2023/09/30 09:21:56;;;;;;;6.53;2.40;;;17.20;99.90;;;;;;5056212;28;20205;-82
2023/09/30 09:24:31;;;;;;;5.90;2.27;;;17.20;1.00;;;;;;5054841;28;20196;-84
2023/09/30 09:27:06;;;;;;;5.73;2.10;;;17.10;1.00;;;;;;5055883;28;20162;-82
2023/09/30 09:29:33;;;;;;;4.47;2.13;;;17.10;99.90;;;;;;5055079;28;20169;-82
2023/09/30 09:32:11;;;;;;;5.47;2.07;;;17.20;1.00;;;;;;5055903;28;20174;-83
2023/09/30 09:34:38;;;;;;;4.93;2.40;;;17.30;99.90;;;;;;5054065;28;20200;-83
2023/09/30 09:37:20;;;;;;;4.33;1.70;;;17.70;99.90;;;;;;5056019;28;20754;-82
2023/09/30 09:39:53;;;;;;;6.80;2.10;;;17.80;1.00;;;;;;5056005;28;20184;-83
2023/09/30 09:42:32;;;;;;;7.23;2.30;;;18.10;99.90;;;;;;5056111;28;20223;-82
2023/09/30 09:45:01;;;;;;;4.50;2.10;;;18.30;99.90;;;;;;5054432;28;20205;-82
2023/09/30 09:47:29;;;;;;;5.10;2.30;;;18.60;1.00;;;;;;5054799;28;20224;-83
2023/09/30 09:49:57;;;;;;;5.33;2.03;;;18.60;76.80;;;;;;5055576;28;20212;-82
2023/09/30 09:52:24;;;;;;;6.37;2.00;;;18.80;99.90;;;;;;5053894;28;20269;-83
2023/09/30 09:54:51;;;;;;;4.95;1.85;;;18.90;99.90;;;;;;5054609;28;20281;-83
2023/09/30 09:57:21;;;;;;;4.88;2.08;;;19.10;19.40;;;;;;5055786;28;20617;-84
2023/09/30 09:59:47;;;;;;;7.78;2.50;;;19.10;1.00;;;;;;5055705;28;20245;-83
2023/09/30 10:02:14;;;;;;;3.55;1.70;;;19.10;99.90;;;;;;5054154;28;20173;-83
2023/09/30 10:04:43;;;;;;;5.75;2.05;;;19.00;1.00;;;;;;5055728;28;20659;-83
2023/09/30 10:07:14;;;;;;;6.55;1.90;;;19.10;99.90;;;;;;5055559;28;20174;-83
2023/09/30 10:09:43;;;;;;;3.75;1.90;;;19.10;99.90;;;;;;5054176;28;20174;-83
2023/09/30 10:12:10;;;;;;;5.30;1.95;;;18.90;1.00;;;;;;5053982;28;20235;-83
2023/09/30 10:14:36;;;;;;;4.30;1.70;;;19.10;99.90;;;;;;5055635;28;20571;-83
2023/09/30 10:17:03;;;;;;;4.03;1.90;;;19.40;1.00;;;;;;5055271;28;20174;-80
2023/09/30 10:19:30;;;;;;;4.88;2.03;;;19.60;1.00;;;;;;5055462;28;20560;-82
2023/09/30 10:22:19;;;;;;;;;;;;;;;;;;;;;
2023/09/30 10:24:43;;;;;;;5.68;2.05;;;19.50;99.90;;;;;;5055469;28;20200;-83
2023/09/30 10:27:24;;;;;;;4.90;2.25;;;19.30;1.00;;;;;;5053971;28;20169;-83
2023/09/30 10:30:05;;;;;;;5.78;2.08;;;19.30;1.00;;;;;;5055294;28;20169;-83
2023/09/30 10:32:59;;;;;;;3.67;2.03;;;19.20;1.00;;;;;;5054948;28;20205;-82
2023/09/30 10:35:27;;;;;;;6.95;1.77;;;19.20;1.00;;;;;;5055545;28;20606;-83
2023/09/30 10:38:22;;;;;;;5.18;2.20;;;19.30;1.00;;;;;;5055262;28;20170;-83
2023/09/30 10:40:48;;;;;;;6.25;2.38;;;19.50;99.90;;;;;;5054884;28;20212;-82
2023/09/30 10:43:40;;;;;;;6.28;2.20;;;19.80;1.00;;;;;;5053739;28;20180;-82
2023/09/30 10:46:27;;;;;;;6.80;1.88;;;20.00;1.00;;;;;;5053427;28;20581;-82
2023/09/30 10:48:53;;;;;;;4.90;1.85;;;20.00;1.00;;;;;;5053520;28;20174;-83
2023/09/30 10:51:22;;;;;;;5.65;2.10;;;20.20;99.90;;;;;;5055308;28;20226;-83
2023/09/30 10:53:51;;;;;;;3.80;2.00;;;20.50;99.90;;;;;;5053797;28;20198;-82
2023/09/30 10:56:18;;;;;;;5.68;2.03;;;20.70;1.00;;;;;;5055493;28;20170;-83
2023/09/30 10:58:44;;;;;;;5.55;1.90;;;20.90;1.00;;;;;;5054881;28;20277;-83
2023/09/30 11:01:17;;;;;;;5.60;2.38;;;21.00;1.00;;;;;;5054297;28;20224;-83
2023/09/30 11:03:44;;;;;;;4.28;2.00;;;20.80;1.00;;;;;;5054775;28;20669;-83
2023/09/30 11:06:17;;;;;;;6.55;2.00;;;21.00;1.00;;;;;;5053370;28;20166;-83
2023/09/30 11:08:55;;;;;;;5.35;1.98;;;21.00;99.90;;;;;;5055084;28;20201;-82
2023/09/30 11:11:40;;;;;;;5.03;1.80;;;20.90;1.00;;;;;;5052921;28;20200;-83
2023/09/30 11:14:28;;;;;;;4.43;1.90;;;21.20;1.00;;;;;;5053319;28;20200;-83
2023/09/30 11:16:56;;;;;;;4.72;2.28;;;21.30;1.00;;;;;;5047950;28;20231;-83
2023/09/30 11:19:22;;;;;;;5.28;2.00;;;21.50;1.00;;;;;;5054680;28;20170;-83
2023/09/30 11:21:54;;;;;;;7.05;2.10;;;21.30;99.90;;;;;;5053183;28;20703;-83
2023/09/30 11:24:20;;;;;;;4.90;1.98;;;21.70;1.00;;;;;;5054227;28;20198;-83
2023/09/30 11:26:46;;;;;;;4.43;2.10;;;21.90;1.00;;;;;;5054153;28;20174;-82
2023/09/30 11:29:13;;;;;;;4.65;1.98;;;21.80;1.00;;;;;;5054523;28;20672;-83
2023/09/30 11:31:39;;;;;;;6.80;2.30;;;21.40;99.90;;;;;;5054299;28;20661;-81
2023/09/30 11:34:07;;;;;;;3.65;2.00;;;21.30;99.90;;;;;;5052851;28;20209;-84
2023/09/30 11:36:35;;;;;;;6.60;2.25;;;21.00;99.90;;;;;;5053924;28;20240;-80
2023/09/30 11:39:03;;;;;;;4.60;2.22;;;20.90;99.90;;;;;;5054205;28;20193;-81
2023/09/30 11:41:41;;;;;;;7.25;2.10;;;20.80;99.90;;;;;;5053427;28;20197;-82
2023/09/30 11:44:12;;;;;;;5.07;1.92;;;21.10;99.90;;;;;;5053279;28;20630;-83
2023/09/30 11:46:54;;;;;;;5.07;2.33;;;21.70;1.00;;;;;;5054339;28;20654;-83
2023/09/30 11:49:31;;;;;;;3.78;1.80;;;22.00;99.90;;;;;;5054317;28;20231;-82
2023/09/30 11:51:59;;;;;;;3.88;1.95;;;21.80;2.20;;;;;;5053705;28;20170;-83
2023/09/30 11:54:33;;;;;;;3.63;1.75;;;21.80;99.90;;;;;;5052367;28;20294;-83
2023/09/30 11:57:00;;;;;;;4.45;2.25;;;22.30;99.90;;;;;;5053997;28;20592;-83
2023/09/30 11:59:26;;;;;;;5.55;2.03;;;22.70;1.00;;;;;;5052697;28;20177;-83
2023/09/30 12:01:53;;;;;;;5.65;2.20;;;22.40;1.00;;;;;;5053780;28;20201;-83
2023/09/30 12:04:19;;;;;;;4.82;1.98;;;22.40;1.00;;;;;;5053743;28;20200;-83
2023/09/30 12:06:48;;;;;;;4.72;2.13;;;22.30;1.00;;;;;;5052612;28;20182;-83
2023/09/30 12:09:22;;;;;;;4.30;2.10;;;22.70;1.00;;;;;;5052137;28;20170;-82
2023/09/30 12:11:48;;;;;;;5.25;2.03;;;22.70;1.00;;;;;;5052311;28;20173;-83
2023/09/30 12:14:13;;;;;;;5.40;1.70;;;22.30;1.00;;;;;;5052552;28;20323;-82
2023/09/30 12:16:41;;;;;;;5.50;1.90;;;22.60;1.00;;;;;;5052356;28;20682;-82
2023/09/30 12:19:06;;;;;;;4.65;1.80;;;22.10;1.00;;;;;;5052073;28;20181;-84
2023/09/30 12:21:33;;;;;;;4.32;1.80;;;21.60;1.00;;;;;;5051703;28;20315;-83
2023/09/30 12:24:00;;;;;;;4.32;1.95;;;21.80;1.00;;;;;;5053471;28;20265;-83
2023/09/30 12:26:25;;;;;;;5.53;1.73;;;22.30;1.00;;;;;;5052199;28;20181;-82
2023/09/30 12:28:51;;;;;;;6.00;2.20;;;22.50;1.00;;;;;;5053527;28;20162;-82
2023/09/30 12:31:18;;;;;;;4.05;1.75;;;22.90;1.00;;;;;;5052213;28;20681;-83
2023/09/30 12:33:44;;;;;;;4.05;1.70;;;23.00;1.00;;;;;;5051990;28;20673;-82
2023/09/30 12:36:09;;;;;;;3.15;1.60;;;23.50;99.90;;;;;;5052729;28;20199;-83
2023/09/30 12:38:35;;;;;;;3.53;1.80;;;23.40;99.90;;;;;;5052075;28;20180;-82
2023/09/30 12:41:00;;;;;;;3.38;1.55;;;22.70;99.90;;;;;;5051929;28;20198;-82
2023/09/30 12:43:26;;;;;;;3.78;1.63;;;22.60;99.90;;;;;;5053355;28;20169;-82
2023/09/30 12:45:52;;;;;;;3.00;1.60;;;23.30;99.90;;;;;;5052870;28;20658;-83
2023/09/30 12:48:17;;;;;;;5.60;2.00;;;23.60;99.90;;;;;;5053395;28;20230;-83
2023/09/30 12:50:46;;;;;;;4.55;1.98;;;24.20;99.90;;;;;;5051838;28;20176;-83
2023/09/30 12:53:11;;;;;;;4.75;1.73;;;24.30;99.90;;;;;;5053231;28;20533;-83